PWSweather.com
Personal Weather Stations
Station Observations
KETX01
Ketx, PatraGR 26331

KetxPatraGR 26331

Lat: 38.238889, Lon: 21.751111

Elevation: 56

Station Type: Davis Instruments / Vantage Pro2 Plus

http://meteopatras.eu

High Low Average
Temperature 57.2°F14.0°C 45.7°F7.6°C 50.6°F10.3°C
Dew Point 33.6°F0.9°C 26.6°F-3.0°C 30.3°F-0.9°C
Winds 13.8 mph 22.2 kmh Calm Calm 6.0 mph ESE9.7 kmh ESE
Wind Gusts 26.5 mph42.6 kmh -- 10.0 mph16.1 kmh
Humidity 60% 36% 46%
Pressure 30.29 in1025.7 mb 30.18 in1022.0 mb -
Precipitation 0.00 in0.0 mm - -
Hour Temp Dew Point Humidity Winds Wind Gusts Pressure Precip Precip Rate Daily Precip Total
12:00 AM 48.7°F9.3°C 28.8°F-1.8°C 46% 8.1 mph E13.0 kmh E 16.1 mph25.9 kmh 30.18 in1022.0 mb - 0.00 in0.0 mm 0.00 in0.0 mm
12:05 AM 48.5°F9.2°C 28.7°F-1.8°C 46% 6.9 mph E11.1 kmh E 10.4 mph16.7 kmh 30.18 in1022.0 mb - 0.00 in0.0 mm 0.00 in0.0 mm
12:10 AM 48.5°F9.2°C 28.1°F-2.2°C 45% 8.1 mph ESE13.0 kmh ESE 11.5 mph18.5 kmh 30.18 in1022.0 mb - 0.00 in0.0 mm 0.00 in0.0 mm
12:15 AM 48.5°F9.2°C 28.1°F-2.2°C 45% 9.2 mph E14.8 kmh E 11.5 mph18.5 kmh 30.18 in1022.0 mb - 0.00 in0.0 mm 0.00 in0.0 mm
12:20 AM 48.5°F9.2°C 28.6°F-1.9°C 46% 10.4 mph E16.7 kmh E 19.6 mph31.5 kmh 30.18 in1022.0 mb - 0.00 in0.0 mm 0.00 in0.0 mm
12:25 AM 48.6°F9.2°C 28.2°F-2.1°C 45% 9.2 mph ESE14.8 kmh ESE 15.0 mph24.1 kmh 30.18 in1022.0 mb - 0.00 in0.0 mm 0.00 in0.0 mm
12:30 AM 48.7°F9.3°C 28.3°F-2.1°C 45% 9.2 mph E14.8 kmh E 12.7 mph20.4 kmh 30.18 in1022.0 mb - 0.00 in0.0 mm 0.00 in0.0 mm
12:35 AM 48.8°F9.3°C 28.4°F-2.0°C 45% 8.1 mph ESE13.0 kmh ESE 11.5 mph18.5 kmh 30.18 in1022.0 mb - 0.00 in0.0 mm 0.00 in0.0 mm
12:40 AM 48.7°F9.3°C 28.3°F-2.1°C 45% 6.9 mph E11.1 kmh E 9.2 mph14.8 kmh 30.18 in1022.0 mb - 0.00 in0.0 mm 0.00 in0.0 mm
12:45 AM 48.7°F9.3°C 28.3°F-2.1°C 45% 3.5 mph SE5.6 kmh SE 4.6 mph7.4 kmh 30.18 in1022.0 mb - 0.00 in0.0 mm 0.00 in0.0 mm
12:50 AM 48.6°F9.2°C 28.7°F-1.8°C 46% 2.3 mph E3.7 kmh E 5.8 mph9.3 kmh 30.18 in1022.0 mb - 0.00 in0.0 mm 0.00 in0.0 mm
12:55 AM 48.6°F9.2°C 28.2°F-2.1°C 45% 6.9 mph ESE11.1 kmh ESE 8.1 mph13.0 kmh 30.19 in1022.4 mb - 0.00 in0.0 mm 0.00 in0.0 mm
01:00 AM 48.7°F9.3°C 27.7°F-2.4°C 44% 9.2 mph E14.8 kmh E 15.0 mph24.1 kmh 30.19 in1022.4 mb - 0.00 in0.0 mm 0.00 in0.0 mm
01:05 AM 48.7°F9.3°C 28.3°F-2.1°C 45% 4.6 mph ENE7.4 kmh ENE 12.7 mph20.4 kmh 30.19 in1022.4 mb - 0.00 in0.0 mm 0.00 in0.0 mm
01:10 AM 48.8°F9.3°C 27.8°F-2.3°C 44% 5.8 mph ENE9.3 kmh ENE 8.1 mph13.0 kmh 30.19 in1022.4 mb - 0.00 in0.0 mm 0.00 in0.0 mm
01:15 AM 48.8°F9.3°C 28.4°F-2.0°C 45% 4.6 mph NNE7.4 kmh NNE 10.4 mph16.7 kmh 30.19 in1022.4 mb - 0.00 in0.0 mm 0.00 in0.0 mm
01:20 AM 48.8°F9.3°C 28.4°F-2.0°C 45% 8.1 mph E13.0 kmh E 12.7 mph20.4 kmh 30.19 in1022.4 mb - 0.00 in0.0 mm 0.00 in0.0 mm
01:25 AM 48.7°F9.3°C 28.3°F-2.1°C 45% 9.2 mph ESE14.8 kmh ESE 10.4 mph16.7 kmh 30.19 in1022.4 mb - 0.00 in0.0 mm 0.00 in0.0 mm
01:30 AM 48.7°F9.3°C 28.3°F-2.1°C 45% 8.1 mph ESE13.0 kmh ESE 11.5 mph18.5 kmh 30.19 in1022.4 mb - 0.00 in0.0 mm 0.00 in0.0 mm
01:35 AM 48.8°F9.3°C 27.8°F-2.3°C 44% 3.5 mph SE5.6 kmh SE 3.5 mph5.6 kmh 30.19 in1022.4 mb - 0.00 in0.0 mm 0.00 in0.0 mm
01:40 AM 48.7°F9.3°C 28.3°F-2.1°C 45% 4.6 mph E7.4 kmh E 11.5 mph18.5 kmh 30.19 in1022.4 mb - 0.00 in0.0 mm 0.00 in0.0 mm
01:45 AM 48.6°F9.2°C 28.2°F-2.1°C 45% 10.4 mph ESE16.7 kmh ESE 19.6 mph31.5 kmh 30.19 in1022.4 mb - 0.00 in0.0 mm 0.00 in0.0 mm
01:50 AM 48.8°F9.3°C 28.4°F-2.0°C 45% 10.4 mph ESE16.7 kmh ESE 12.7 mph20.4 kmh 30.18 in1022.0 mb - 0.00 in0.0 mm 0.00 in0.0 mm
01:55 AM 48.8°F9.3°C 28.4°F-2.0°C 45% 4.6 mph ESE7.4 kmh ESE 6.9 mph11.1 kmh 30.19 in1022.4 mb - 0.00 in0.0 mm 0.00 in0.0 mm
02:00 AM 48.8°F9.3°C 28.3°F-2.1°C 45% 8.1 mph E13.0 kmh E 12.7 mph20.4 kmh 30.19 in1022.4 mb - 0.00 in0.0 mm 0.00 in0.0 mm
02:05 AM 48.8°F9.3°C 28.4°F-2.0°C 45% 8.1 mph E13.0 kmh E 11.5 mph18.5 kmh 30.19 in1022.4 mb - 0.00 in0.0 mm 0.00 in0.0 mm
02:10 AM 48.8°F9.3°C 28.4°F-2.0°C 45% 6.9 mph ESE11.1 kmh ESE 10.4 mph16.7 kmh 30.18 in1022.0 mb - 0.00 in0.0 mm 0.00 in0.0 mm
02:15 AM 48.7°F9.3°C 28.3°F-2.1°C 45% 8.1 mph E13.0 kmh E 18.4 mph29.6 kmh 30.18 in1022.0 mb - 0.00 in0.0 mm 0.00 in0.0 mm
02:20 AM 48.7°F9.3°C 28.3°F-2.1°C 45% 9.2 mph E14.8 kmh E 16.1 mph25.9 kmh 30.18 in1022.0 mb - 0.00 in0.0 mm 0.00 in0.0 mm
02:25 AM 48.5°F9.2°C 28.6°F-1.9°C 46% 10.4 mph ESE16.7 kmh ESE 26.5 mph42.6 kmh 30.18 in1022.0 mb - 0.00 in0.0 mm 0.00 in0.0 mm
02:30 AM 48.5°F9.2°C 28.6°F-1.9°C 46% 6.9 mph SE11.1 kmh SE 10.4 mph16.7 kmh 30.18 in1022.0 mb - 0.00 in0.0 mm 0.00 in0.0 mm
02:35 AM 48.4°F9.1°C 28.5°F-1.9°C 46% 8.1 mph ESE13.0 kmh ESE 17.3 mph27.8 kmh 30.18 in1022.0 mb - 0.00 in0.0 mm 0.00 in0.0 mm
02:40 AM 48.3°F9.1°C 28.5°F-1.9°C 46% 8.1 mph E13.0 kmh E 15.0 mph24.1 kmh 30.18 in1022.0 mb - 0.00 in0.0 mm 0.00 in0.0 mm
02:45 AM 48.3°F9.1°C 28.5°F-1.9°C 46% 8.1 mph E13.0 kmh E 13.8 mph22.2 kmh 30.18 in1022.0 mb - 0.00 in0.0 mm 0.00 in0.0 mm
02:50 AM 48.4°F9.1°C 28.0°F-2.2°C 45% 8.1 mph ESE13.0 kmh ESE 10.4 mph16.7 kmh 30.19 in1022.4 mb - 0.00 in0.0 mm 0.00 in0.0 mm
02:55 AM 48.5°F9.2°C 28.1°F-2.2°C 45% 5.8 mph ENE9.3 kmh ENE 13.8 mph22.2 kmh 30.18 in1022.0 mb - 0.00 in0.0 mm 0.00 in0.0 mm
03:00 AM 48.4°F9.1°C 28.1°F-2.2°C 45% 3.5 mph SE5.6 kmh SE 3.5 mph5.6 kmh 30.18 in1022.0 mb - 0.00 in0.0 mm 0.00 in0.0 mm
03:05 AM 48.5°F9.2°C 28.1°F-2.2°C 45% 11.5 mph ENE18.5 kmh ENE 16.1 mph25.9 kmh 30.18 in1022.0 mb - 0.00 in0.0 mm 0.00 in0.0 mm
03:10 AM 48.6°F9.2°C 28.2°F-2.1°C 45% 10.4 mph ENE16.7 kmh ENE 11.5 mph18.5 kmh 30.18 in1022.0 mb - 0.00 in0.0 mm 0.00 in0.0 mm
03:15 AM 48.6°F9.2°C 28.2°F-2.1°C 45% 10.4 mph ESE16.7 kmh ESE 11.5 mph18.5 kmh 30.18 in1022.0 mb - 0.00 in0.0 mm 0.00 in0.0 mm
03:20 AM 48.6°F9.2°C 28.2°F-2.1°C 45% 10.4 mph ENE16.7 kmh ENE 13.8 mph22.2 kmh 30.18 in1022.0 mb - 0.00 in0.0 mm 0.00 in0.0 mm
03:25 AM 48.5°F9.2°C 28.1°F-2.2°C 45% 5.8 mph E9.3 kmh E 8.1 mph13.0 kmh 30.18 in1022.0 mb - 0.00 in0.0 mm 0.00 in0.0 mm
03:30 AM 48.4°F9.1°C 28.0°F-2.2°C 45% 5.8 mph E9.3 kmh E 8.1 mph13.0 kmh 30.18 in1022.0 mb - 0.00 in0.0 mm 0.00 in0.0 mm
03:35 AM 48.4°F9.1°C 28.0°F-2.2°C 45% 10.4 mph E16.7 kmh E 19.6 mph31.5 kmh 30.18 in1022.0 mb - 0.00 in0.0 mm 0.00 in0.0 mm
03:40 AM 48.4°F9.1°C 28.0°F-2.2°C 45% 5.8 mph ENE9.3 kmh ENE 11.5 mph18.5 kmh 30.18 in1022.0 mb - 0.00 in0.0 mm 0.00 in0.0 mm
03:45 AM 48.3°F9.1°C 28.5°F-1.9°C 46% 9.2 mph E14.8 kmh E 11.5 mph18.5 kmh 30.18 in1022.0 mb - 0.00 in0.0 mm 0.00 in0.0 mm
03:50 AM 48.4°F9.1°C 28.0°F-2.2°C 45% 6.9 mph ENE11.1 kmh ENE 13.8 mph22.2 kmh 30.18 in1022.0 mb - 0.00 in0.0 mm 0.00 in0.0 mm
03:55 AM 48.4°F9.1°C 28.5°F-1.9°C 46% 5.8 mph E9.3 kmh E 8.1 mph13.0 kmh 30.18 in1022.0 mb - 0.00 in0.0 mm 0.00 in0.0 mm
04:00 AM 48.4°F9.1°C 28.0°F-2.2°C 45% 5.8 mph ESE9.3 kmh ESE 11.5 mph18.5 kmh 30.18 in1022.0 mb - 0.00 in0.0 mm 0.00 in0.0 mm
04:05 AM 48.4°F9.1°C 28.0°F-2.2°C 45% 8.1 mph ESE13.0 kmh ESE 9.2 mph14.8 kmh 30.18 in1022.0 mb - 0.00 in0.0 mm 0.00 in0.0 mm
04:10 AM 48.3°F9.1°C 27.9°F-2.3°C 45% 5.8 mph ESE9.3 kmh ESE 16.1 mph25.9 kmh 30.18 in1022.0 mb - 0.00 in0.0 mm 0.00 in0.0 mm
04:15 AM 48.3°F9.1°C 27.9°F-2.3°C 45% 6.9 mph ESE11.1 kmh ESE 11.5 mph18.5 kmh 30.18 in1022.0 mb - 0.00 in0.0 mm 0.00 in0.0 mm
04:20 AM 48.3°F9.1°C 27.9°F-2.3°C 45% 5.8 mph E9.3 kmh E 8.1 mph13.0 kmh 30.19 in1022.4 mb - 0.00 in0.0 mm 0.00 in0.0 mm
04:25 AM 48.2°F9.0°C 28.4°F-2.0°C 46% 4.6 mph ESE7.4 kmh ESE 6.9 mph11.1 kmh 30.19 in1022.4 mb - 0.00 in0.0 mm 0.00 in0.0 mm
04:30 AM 48.1°F8.9°C 28.3°F-2.1°C 46% 5.8 mph ESE9.3 kmh ESE 17.3 mph27.8 kmh 30.19 in1022.4 mb - 0.00 in0.0 mm 0.00 in0.0 mm
04:35 AM 48.2°F9.0°C 27.8°F-2.3°C 45% 6.9 mph NNE11.1 kmh NNE 16.1 mph25.9 kmh 30.18 in1022.0 mb - 0.00 in0.0 mm 0.00 in0.0 mm
04:40 AM 48.2°F9.0°C 27.3°F-2.6°C 44% 9.2 mph ENE14.8 kmh ENE 15.0 mph24.1 kmh 30.19 in1022.4 mb - 0.00 in0.0 mm 0.00 in0.0 mm
04:45 AM 48.3°F9.1°C 27.4°F-2.6°C 44% 9.2 mph E14.8 kmh E 19.6 mph31.5 kmh 30.19 in1022.4 mb - 0.00 in0.0 mm 0.00 in0.0 mm
04:50 AM 48.5°F9.2°C 27.6°F-2.4°C 44% 9.2 mph ESE14.8 kmh ESE 12.7 mph20.4 kmh 30.19 in1022.4 mb - 0.00 in0.0 mm 0.00 in0.0 mm
04:55 AM 48.6°F9.2°C 27.1°F-2.7°C 43% 6.9 mph E11.1 kmh E 11.5 mph18.5 kmh 30.19 in1022.4 mb - 0.00 in0.0 mm 0.00 in0.0 mm
05:00 AM 48.6°F9.2°C 27.1°F-2.7°C 43% 5.8 mph E9.3 kmh E 10.4 mph16.7 kmh 30.19 in1022.4 mb - 0.00 in0.0 mm 0.00 in0.0 mm
05:05 AM 48.7°F9.3°C 26.6°F-3.0°C 42% 8.1 mph NE13.0 kmh NE 11.5 mph18.5 kmh 30.19 in1022.4 mb - 0.00 in0.0 mm 0.00 in0.0 mm
05:10 AM 48.6°F9.2°C 27.1°F-2.7°C 43% 10.4 mph ENE16.7 kmh ENE 11.5 mph18.5 kmh 30.19 in1022.4 mb - 0.00 in0.0 mm 0.00 in0.0 mm
05:15 AM 48.6°F9.2°C 27.1°F-2.7°C 43% 9.2 mph E14.8 kmh E 13.8 mph22.2 kmh 30.19 in1022.4 mb - 0.00 in0.0 mm 0.00 in0.0 mm
05:20 AM 48.5°F9.2°C 27.6°F-2.4°C 44% 5.8 mph ESE9.3 kmh ESE 10.4 mph16.7 kmh 30.19 in1022.4 mb - 0.00 in0.0 mm 0.00 in0.0 mm
05:25 AM 48.5°F9.2°C 27.5°F-2.5°C 44% 9.2 mph E14.8 kmh E 12.7 mph20.4 kmh 30.19 in1022.4 mb - 0.00 in0.0 mm 0.00 in0.0 mm
05:30 AM 48.5°F9.2°C 27.6°F-2.4°C 44% 6.9 mph E11.1 kmh E 11.5 mph18.5 kmh 30.19 in1022.4 mb - 0.00 in0.0 mm 0.00 in0.0 mm
05:35 AM 48.6°F9.2°C 27.1°F-2.7°C 43% 10.4 mph SE16.7 kmh SE 19.6 mph31.5 kmh 30.19 in1022.4 mb - 0.00 in0.0 mm 0.00 in0.0 mm
05:40 AM 48.7°F9.3°C 27.2°F-2.7°C 43% 9.2 mph ESE14.8 kmh ESE 11.5 mph18.5 kmh 30.19 in1022.4 mb - 0.00 in0.0 mm 0.00 in0.0 mm
05:45 AM 48.7°F9.3°C 27.2°F-2.7°C 43% 8.1 mph ESE13.0 kmh ESE 13.8 mph22.2 kmh 30.19 in1022.4 mb - 0.00 in0.0 mm 0.00 in0.0 mm
05:50 AM 48.8°F9.3°C 27.3°F-2.6°C 43% 8.1 mph ESE13.0 kmh ESE 15.0 mph24.1 kmh 30.19 in1022.4 mb - 0.00 in0.0 mm 0.00 in0.0 mm
05:55 AM 48.8°F9.3°C 27.3°F-2.6°C 43% 10.4 mph E16.7 kmh E 16.1 mph25.9 kmh 30.19 in1022.4 mb - 0.00 in0.0 mm 0.00 in0.0 mm
06:00 AM 48.9°F9.4°C 27.4°F-2.6°C 43% 9.2 mph SE14.8 kmh SE 18.4 mph29.6 kmh 30.19 in1022.4 mb - 0.00 in0.0 mm 0.00 in0.0 mm
06:05 AM 48.8°F9.3°C 27.2°F-2.7°C 43% 8.1 mph E13.0 kmh E 11.5 mph18.5 kmh 30.19 in1022.4 mb - 0.00 in0.0 mm 0.00 in0.0 mm
06:10 AM 48.8°F9.3°C 27.2°F-2.7°C 43% 8.1 mph ESE13.0 kmh ESE 15.0 mph24.1 kmh 30.19 in1022.4 mb - 0.00 in0.0 mm 0.00 in0.0 mm
06:15 AM 48.8°F9.3°C 27.3°F-2.6°C 43% 5.8 mph E9.3 kmh E 11.5 mph18.5 kmh 30.20 in1022.7 mb - 0.00 in0.0 mm 0.00 in0.0 mm
06:20 AM 48.7°F9.3°C 27.2°F-2.7°C 43% 6.9 mph E11.1 kmh E 11.5 mph18.5 kmh 30.20 in1022.7 mb - 0.00 in0.0 mm 0.00 in0.0 mm
06:25 AM 48.7°F9.3°C 27.2°F-2.7°C 43% 5.8 mph E9.3 kmh E 6.9 mph11.1 kmh 30.20 in1022.7 mb - 0.00 in0.0 mm 0.00 in0.0 mm
06:30 AM 48.6°F9.2°C 27.1°F-2.7°C 43% 4.6 mph E7.4 kmh E 5.8 mph9.3 kmh 30.20 in1022.7 mb - 0.00 in0.0 mm 0.00 in0.0 mm
06:35 AM 48.6°F9.2°C 27.1°F-2.7°C 43% 3.5 mph ESE5.6 kmh ESE 12.7 mph20.4 kmh 30.20 in1022.7 mb - 0.00 in0.0 mm 0.00 in0.0 mm
06:40 AM 48.5°F9.2°C 27.0°F-2.8°C 43% 4.6 mph SE7.4 kmh SE 9.2 mph14.8 kmh 30.20 in1022.7 mb - 0.00 in0.0 mm 0.00 in0.0 mm
06:45 AM 48.5°F9.2°C 27.6°F-2.4°C 44% 8.1 mph ESE13.0 kmh ESE 15.0 mph24.1 kmh 30.20 in1022.7 mb - 0.00 in0.0 mm 0.00 in0.0 mm
06:50 AM 48.5°F9.2°C 27.6°F-2.4°C 44% 5.8 mph ESE9.3 kmh ESE 9.2 mph14.8 kmh 30.20 in1022.7 mb - 0.00 in0.0 mm 0.00 in0.0 mm
06:55 AM 48.5°F9.2°C 27.6°F-2.4°C 44% 8.1 mph ESE13.0 kmh ESE 10.4 mph16.7 kmh 30.20 in1022.7 mb - 0.00 in0.0 mm 0.00 in0.0 mm
07:00 AM 48.6°F9.2°C 27.1°F-2.7°C 43% 4.6 mph NE7.4 kmh NE 5.8 mph9.3 kmh 30.20 in1022.7 mb - 0.00 in0.0 mm 0.00 in0.0 mm
07:05 AM 48.7°F9.3°C 27.2°F-2.7°C 43% 5.8 mph ESE9.3 kmh ESE 9.2 mph14.8 kmh 30.20 in1022.7 mb - 0.00 in0.0 mm 0.00 in0.0 mm
07:10 AM 48.7°F9.3°C 27.7°F-2.4°C 44% 11.5 mph ESE18.5 kmh ESE 13.8 mph22.2 kmh 30.20 in1022.7 mb - 0.00 in0.0 mm 0.00 in0.0 mm
07:15 AM 48.6°F9.2°C 28.2°F-2.1°C 45% 13.8 mph ESE22.2 kmh ESE 19.6 mph31.5 kmh 30.21 in1023.0 mb - 0.00 in0.0 mm 0.00 in0.0 mm
07:20 AM 48.5°F9.2°C 28.1°F-2.2°C 45% 8.1 mph ENE13.0 kmh ENE 13.8 mph22.2 kmh 30.21 in1023.0 mb - 0.00 in0.0 mm 0.00 in0.0 mm
07:25 AM 48.5°F9.2°C 28.1°F-2.2°C 45% 11.5 mph ESE18.5 kmh ESE 16.1 mph25.9 kmh 30.21 in1023.0 mb - 0.00 in0.0 mm 0.00 in0.0 mm
07:30 AM 48.6°F9.2°C 28.2°F-2.1°C 45% 10.4 mph E16.7 kmh E 13.8 mph22.2 kmh 30.21 in1023.0 mb - 0.00 in0.0 mm 0.00 in0.0 mm
07:35 AM 48.6°F9.2°C 28.2°F-2.1°C 45% 10.4 mph E16.7 kmh E 18.4 mph29.6 kmh 30.21 in1023.0 mb - 0.00 in0.0 mm 0.00 in0.0 mm
07:40 AM 48.5°F9.2°C 28.6°F-1.9°C 46% 8.1 mph ESE13.0 kmh ESE 11.5 mph18.5 kmh 30.22 in1023.4 mb - 0.00 in0.0 mm 0.00 in0.0 mm
07:45 AM 48.4°F9.1°C 28.5°F-1.9°C 46% 9.2 mph ESE14.8 kmh ESE 16.1 mph25.9 kmh 30.22 in1023.4 mb - 0.00 in0.0 mm 0.00 in0.0 mm
07:50 AM 48.4°F9.1°C 29.1°F-1.6°C 47% 4.6 mph SE7.4 kmh SE 11.5 mph18.5 kmh 30.22 in1023.4 mb - 0.00 in0.0 mm 0.00 in0.0 mm
07:55 AM 48.5°F9.2°C 28.6°F-1.9°C 46% 9.2 mph SE14.8 kmh SE 15.0 mph24.1 kmh 30.22 in1023.4 mb - 0.00 in0.0 mm 0.00 in0.0 mm
08:00 AM 48.6°F9.2°C 28.2°F-2.1°C 45% 11.5 mph ESE18.5 kmh ESE 13.8 mph22.2 kmh 30.23 in1023.7 mb - 0.00 in0.0 mm 0.00 in0.0 mm
08:05 AM 48.7°F9.3°C 28.8°F-1.8°C 46% 6.9 mph ESE11.1 kmh ESE 11.5 mph18.5 kmh 30.23 in1023.7 mb - 0.00 in0.0 mm 0.00 in0.0 mm
08:10 AM 48.8°F9.3°C 28.4°F-2.0°C 45% 9.2 mph ESE14.8 kmh ESE 15.0 mph24.1 kmh 30.23 in1023.7 mb - 0.00 in0.0 mm 0.00 in0.0 mm
08:15 AM 48.9°F9.4°C 28.5°F-1.9°C 45% 3.5 mph ESE5.6 kmh ESE 6.9 mph11.1 kmh 30.23 in1023.7 mb - 0.00 in0.0 mm 0.00 in0.0 mm
08:20 AM 48.9°F9.4°C 28.5°F-1.9°C 45% 9.2 mph E14.8 kmh E 18.4 mph29.6 kmh 30.23 in1023.7 mb - 0.00 in0.0 mm 0.00 in0.0 mm
08:25 AM 49.0°F9.4°C 28.6°F-1.9°C 45% 11.5 mph SE18.5 kmh SE 19.6 mph31.5 kmh 30.24 in1024.0 mb - 0.00 in0.0 mm 0.00 in0.0 mm
08:30 AM 49.0°F9.4°C 29.1°F-1.6°C 46% 10.4 mph ESE16.7 kmh ESE 17.3 mph27.8 kmh 30.24 in1024.0 mb - 0.00 in0.0 mm 0.00 in0.0 mm
08:35 AM 49.1°F9.5°C 29.2°F-1.6°C 46% 8.1 mph ESE13.0 kmh ESE 11.5 mph18.5 kmh 30.24 in1024.0 mb - 0.00 in0.0 mm 0.00 in0.0 mm
08:40 AM 49.5°F9.7°C 29.0°F-1.7°C 45% 9.2 mph ESE14.8 kmh ESE 11.5 mph18.5 kmh 30.24 in1024.0 mb - 0.00 in0.0 mm 0.00 in0.0 mm
08:45 AM 49.8°F9.9°C 28.7°F-1.8°C 44% 12.7 mph NE20.4 kmh NE 18.4 mph29.6 kmh 30.24 in1024.0 mb - 0.00 in0.0 mm 0.00 in0.0 mm
08:50 AM 50.0°F10.0°C 28.9°F-1.7°C 44% 8.1 mph NE13.0 kmh NE 15.0 mph24.1 kmh 30.25 in1024.4 mb - 0.00 in0.0 mm 0.00 in0.0 mm
08:55 AM 50.2°F10.1°C 29.7°F-1.3°C 45% 12.7 mph NE20.4 kmh NE 19.6 mph31.5 kmh 30.25 in1024.4 mb - 0.00 in0.0 mm 0.00 in0.0 mm
09:00 AM 50.2°F10.1°C 29.7°F-1.3°C 45% 11.5 mph ENE18.5 kmh ENE 15.0 mph24.1 kmh 30.25 in1024.4 mb - 0.00 in0.0 mm 0.00 in0.0 mm
09:05 AM 50.3°F10.2°C 29.7°F-1.3°C 45% 10.4 mph E16.7 kmh E 16.1 mph25.9 kmh 30.25 in1024.4 mb - 0.00 in0.0 mm 0.00 in0.0 mm
09:10 AM 50.3°F10.2°C 29.8°F-1.2°C 45% 6.9 mph ENE11.1 kmh ENE 11.5 mph18.5 kmh 30.25 in1024.4 mb - 0.00 in0.0 mm 0.00 in0.0 mm
09:15 AM 50.5°F10.3°C 29.9°F-1.2°C 45% 8.1 mph E13.0 kmh E 11.5 mph18.5 kmh 30.25 in1024.4 mb - 0.00 in0.0 mm 0.00 in0.0 mm
09:20 AM 50.8°F10.4°C 29.7°F-1.3°C 44% 6.9 mph ESE11.1 kmh ESE 11.5 mph18.5 kmh 30.25 in1024.4 mb - 0.00 in0.0 mm 0.00 in0.0 mm
09:25 AM 50.9°F10.5°C 29.2°F-1.6°C 43% 8.1 mph NE13.0 kmh NE 11.5 mph18.5 kmh 30.25 in1024.4 mb - 0.00 in0.0 mm 0.00 in0.0 mm
09:30 AM 50.8°F10.4°C 29.1°F-1.6°C 43% 5.8 mph E9.3 kmh E 10.4 mph16.7 kmh 30.25 in1024.4 mb - 0.00 in0.0 mm 0.00 in0.0 mm
09:35 AM 51.1°F10.6°C 29.4°F-1.4°C 43% 9.2 mph E14.8 kmh E 13.8 mph22.2 kmh 30.25 in1024.4 mb - 0.00 in0.0 mm 0.00 in0.0 mm
09:40 AM 51.2°F10.7°C 29.4°F-1.4°C 43% 9.2 mph ESE14.8 kmh ESE 18.4 mph29.6 kmh 30.25 in1024.4 mb - 0.00 in0.0 mm 0.00 in0.0 mm
09:45 AM 51.1°F10.6°C 29.9°F-1.2°C 44% 6.9 mph SE11.1 kmh SE 11.5 mph18.5 kmh 30.25 in1024.4 mb - 0.00 in0.0 mm 0.00 in0.0 mm
09:50 AM 51.4°F10.8°C 29.6°F-1.3°C 43% 6.9 mph E11.1 kmh E 11.5 mph18.5 kmh 30.25 in1024.4 mb - 0.00 in0.0 mm 0.00 in0.0 mm
09:55 AM 51.5°F10.8°C 29.7°F-1.3°C 43% 6.9 mph ESE11.1 kmh ESE 11.5 mph18.5 kmh 30.25 in1024.4 mb - 0.00 in0.0 mm 0.00 in0.0 mm
10:00 AM 51.3°F10.7°C 29.6°F-1.3°C 43% 9.2 mph ENE14.8 kmh ENE 13.8 mph22.2 kmh 30.25 in1024.4 mb - 0.00 in0.0 mm 0.00 in0.0 mm
10:05 AM 51.1°F10.6°C 29.9°F-1.2°C 44% 3.5 mph E5.6 kmh E 8.1 mph13.0 kmh 30.25 in1024.4 mb - 0.00 in0.0 mm 0.00 in0.0 mm
10:10 AM 51.1°F10.6°C 29.9°F-1.2°C 44% 5.8 mph ENE9.3 kmh ENE 11.5 mph18.5 kmh 30.25 in1024.4 mb - 0.00 in0.0 mm 0.00 in0.0 mm
10:15 AM 50.7°F10.4°C 29.6°F-1.3°C 44% 9.2 mph ENE14.8 kmh ENE 17.3 mph27.8 kmh 30.25 in1024.4 mb - 0.00 in0.0 mm 0.00 in0.0 mm
10:20 AM 50.4°F10.2°C 29.3°F-1.5°C 44% 11.5 mph ENE18.5 kmh ENE 18.4 mph29.6 kmh 30.25 in1024.4 mb - 0.00 in0.0 mm 0.00 in0.0 mm
10:25 AM 50.3°F10.2°C 29.2°F-1.6°C 44% 8.1 mph E13.0 kmh E 11.5 mph18.5 kmh 30.25 in1024.4 mb - 0.00 in0.0 mm 0.00 in0.0 mm
10:30 AM 50.3°F10.2°C 29.2°F-1.6°C 44% 9.2 mph NE14.8 kmh NE 12.7 mph20.4 kmh 30.25 in1024.4 mb - 0.00 in0.0 mm 0.00 in0.0 mm
10:35 AM 50.3°F10.2°C 29.2°F-1.6°C 44% 9.2 mph E14.8 kmh E 19.6 mph31.5 kmh 30.25 in1024.4 mb - 0.00 in0.0 mm 0.00 in0.0 mm
10:40 AM 50.3°F10.2°C 29.2°F-1.6°C 44% 5.8 mph E9.3 kmh E 5.8 mph9.3 kmh 30.25 in1024.4 mb - 0.00 in0.0 mm 0.00 in0.0 mm
10:45 AM 50.3°F10.2°C 29.7°F-1.3°C 45% 12.7 mph ENE20.4 kmh ENE 18.4 mph29.6 kmh 30.26 in1024.7 mb - 0.00 in0.0 mm 0.00 in0.0 mm
10:50 AM 50.3°F10.2°C 29.8°F-1.2°C 45% 8.1 mph E13.0 kmh E 11.5 mph18.5 kmh 30.26 in1024.7 mb - 0.00 in0.0 mm 0.00 in0.0 mm
10:55 AM 50.3°F10.2°C 29.7°F-1.3°C 45% 5.8 mph ESE9.3 kmh ESE 10.4 mph16.7 kmh 30.26 in1024.7 mb - 0.00 in0.0 mm 0.00 in0.0 mm
11:00 AM 50.3°F10.2°C 30.3°F-0.9°C 46% 10.4 mph SE16.7 kmh SE 13.8 mph22.2 kmh 30.26 in1024.7 mb - 0.00 in0.0 mm 0.00 in0.0 mm
11:05 AM 50.3°F10.2°C 30.3°F-0.9°C 46% 6.9 mph ESE11.1 kmh ESE 11.5 mph18.5 kmh 30.26 in1024.7 mb - 0.00 in0.0 mm 0.00 in0.0 mm
11:10 AM 50.4°F10.2°C 30.4°F-0.9°C 46% 9.2 mph ESE14.8 kmh ESE 17.3 mph27.8 kmh 30.26 in1024.7 mb - 0.00 in0.0 mm 0.00 in0.0 mm
11:15 AM 50.7°F10.4°C 30.1°F-1.1°C 45% 5.8 mph ENE9.3 kmh ENE 10.4 mph16.7 kmh 30.26 in1024.7 mb - 0.00 in0.0 mm 0.00 in0.0 mm
11:20 AM 51.2°F10.7°C 30.6°F-0.8°C 45% 8.1 mph E13.0 kmh E 13.8 mph22.2 kmh 30.26 in1024.7 mb - 0.00 in0.0 mm 0.00 in0.0 mm
11:25 AM 51.2°F10.7°C 30.0°F-1.1°C 44% 12.7 mph ESE20.4 kmh ESE 24.2 mph38.9 kmh 30.27 in1025.1 mb - 0.00 in0.0 mm 0.00 in0.0 mm
11:30 AM 51.7°F10.9°C 30.5°F-0.8°C 44% 10.4 mph ESE16.7 kmh ESE 15.0 mph24.1 kmh 30.26 in1024.7 mb - 0.00 in0.0 mm 0.00 in0.0 mm
11:35 AM 52.3°F11.3°C 31.0°F-0.6°C 44% 9.2 mph E14.8 kmh E 12.7 mph20.4 kmh 30.26 in1024.7 mb - 0.00 in0.0 mm 0.00 in0.0 mm
11:40 AM 52.6°F11.4°C 30.8°F-0.7°C 43% 5.8 mph E9.3 kmh E 11.5 mph18.5 kmh 30.26 in1024.7 mb - 0.00 in0.0 mm 0.00 in0.0 mm
11:45 AM 53.1°F11.7°C 31.2°F-0.4°C 43% 6.9 mph E11.1 kmh E 15.0 mph24.1 kmh 30.26 in1024.7 mb - 0.00 in0.0 mm 0.00 in0.0 mm
11:50 AM 53.3°F11.8°C 30.8°F-0.7°C 42% 10.4 mph E16.7 kmh E 17.3 mph27.8 kmh 30.26 in1024.7 mb - 0.00 in0.0 mm 0.00 in0.0 mm
11:55 AM 53.1°F11.7°C 30.6°F-0.8°C 42% 11.5 mph E18.5 kmh E 20.7 mph33.3 kmh 30.26 in1024.7 mb - 0.00 in0.0 mm 0.00 in0.0 mm
12:00 PM 53.5°F11.9°C 30.9°F-0.6°C 42% 8.1 mph ESE13.0 kmh ESE 10.4 mph16.7 kmh 30.26 in1024.7 mb - 0.00 in0.0 mm 0.00 in0.0 mm
12:05 PM 53.5°F11.9°C 31.5°F-0.3°C 43% 6.9 mph E11.1 kmh E 11.5 mph18.5 kmh 30.26 in1024.7 mb - 0.00 in0.0 mm 0.00 in0.0 mm
12:10 PM 53.3°F11.8°C 31.4°F-0.3°C 43% 6.9 mph ENE11.1 kmh ENE 15.0 mph24.1 kmh 30.26 in1024.7 mb - 0.00 in0.0 mm 0.00 in0.0 mm
12:15 PM 53.2°F11.8°C 31.2°F-0.4°C 43% 9.2 mph NE14.8 kmh NE 12.7 mph20.4 kmh 30.25 in1024.4 mb - 0.00 in0.0 mm 0.00 in0.0 mm
12:20 PM 53.4°F11.9°C 31.4°F-0.3°C 43% 11.5 mph ESE18.5 kmh ESE 18.4 mph29.6 kmh 30.25 in1024.4 mb - 0.00 in0.0 mm 0.00 in0.0 mm
12:25 PM 53.4°F11.9°C 30.9°F-0.6°C 42% 10.4 mph ESE16.7 kmh ESE 13.8 mph22.2 kmh 30.26 in1024.7 mb - 0.00 in0.0 mm 0.00 in0.0 mm
12:30 PM 53.4°F11.9°C 30.9°F-0.6°C 42% 6.9 mph E11.1 kmh E 11.5 mph18.5 kmh 30.26 in1024.7 mb - 0.00 in0.0 mm 0.00 in0.0 mm
12:35 PM 53.7°F12.1°C 30.5°F-0.8°C 41% 6.9 mph SE11.1 kmh SE 10.4 mph16.7 kmh 30.26 in1024.7 mb - 0.00 in0.0 mm 0.00 in0.0 mm
12:40 PM 53.6°F12.0°C 31.6°F-0.2°C 43% 9.2 mph NE14.8 kmh NE 16.1 mph25.9 kmh 30.25 in1024.4 mb - 0.00 in0.0 mm 0.00 in0.0 mm
12:45 PM 53.4°F11.9°C 30.9°F-0.6°C 42% 9.2 mph ENE14.8 kmh ENE 13.8 mph22.2 kmh 30.25 in1024.4 mb - 0.00 in0.0 mm 0.00 in0.0 mm
12:50 PM 53.8°F12.1°C 31.8°F-0.1°C 43% 8.1 mph ENE13.0 kmh ENE 19.6 mph31.5 kmh 30.25 in1024.4 mb - 0.00 in0.0 mm 0.00 in0.0 mm
12:55 PM 54.0°F12.2°C 30.8°F-0.7°C 41% 11.5 mph ENE18.5 kmh ENE 19.6 mph31.5 kmh 30.25 in1024.4 mb - 0.00 in0.0 mm 0.00 in0.0 mm
01:00 PM 54.0°F12.2°C 30.8°F-0.7°C 41% 4.6 mph E7.4 kmh E 10.4 mph16.7 kmh 30.25 in1024.4 mb - 0.00 in0.0 mm 0.00 in0.0 mm
01:05 PM 54.1°F12.3°C 30.9°F-0.6°C 41% 11.5 mph ENE18.5 kmh ENE 18.4 mph29.6 kmh 30.25 in1024.4 mb - 0.00 in0.0 mm 0.00 in0.0 mm
01:10 PM 53.9°F12.2°C 30.7°F-0.7°C 41% 6.9 mph NNE11.1 kmh NNE 11.5 mph18.5 kmh 30.25 in1024.4 mb - 0.00 in0.0 mm 0.00 in0.0 mm
01:15 PM 53.8°F12.1°C 31.2°F-0.4°C 42% 10.4 mph E16.7 kmh E 19.6 mph31.5 kmh 30.24 in1024.0 mb - 0.00 in0.0 mm 0.00 in0.0 mm
01:20 PM 53.9°F12.2°C 31.3°F-0.4°C 42% 8.1 mph E13.0 kmh E 13.8 mph22.2 kmh 30.24 in1024.0 mb - 0.00 in0.0 mm 0.00 in0.0 mm
01:25 PM 53.6°F12.0°C 31.1°F-0.5°C 42% 10.4 mph NE16.7 kmh NE 11.5 mph18.5 kmh 30.24 in1024.0 mb - 0.00 in0.0 mm 0.00 in0.0 mm
01:30 PM 53.9°F12.2°C 31.9°F-0.1°C 43% 9.2 mph E14.8 kmh E 13.8 mph22.2 kmh 30.24 in1024.0 mb - 0.00 in0.0 mm 0.00 in0.0 mm
01:35 PM 53.9°F12.2°C 31.3°F-0.4°C 42% 10.4 mph E16.7 kmh E 18.4 mph29.6 kmh 30.23 in1023.7 mb - 0.00 in0.0 mm 0.00 in0.0 mm
01:40 PM 54.1°F12.3°C 31.5°F-0.3°C 42% 9.2 mph ESE14.8 kmh ESE 11.5 mph18.5 kmh 30.24 in1024.0 mb - 0.00 in0.0 mm 0.00 in0.0 mm
01:45 PM 54.5°F12.5°C 31.2°F-0.4°C 41% 9.2 mph SE14.8 kmh SE 18.4 mph29.6 kmh 30.24 in1024.0 mb - 0.00 in0.0 mm 0.00 in0.0 mm
01:50 PM 54.5°F12.5°C 31.3°F-0.4°C 41% 4.6 mph E7.4 kmh E 5.8 mph9.3 kmh 30.23 in1023.7 mb - 0.00 in0.0 mm 0.00 in0.0 mm
01:55 PM 54.5°F12.5°C 31.3°F-0.4°C 41% 4.6 mph ENE7.4 kmh ENE 6.9 mph11.1 kmh 30.23 in1023.7 mb - 0.00 in0.0 mm 0.00 in0.0 mm
02:00 PM 54.8°F12.7°C 31.5°F-0.3°C 41% 3.5 mph SE5.6 kmh SE 4.6 mph7.4 kmh 30.23 in1023.7 mb - 0.00 in0.0 mm 0.00 in0.0 mm
02:05 PM 55.3°F12.9°C 31.4°F-0.3°C 40% 4.6 mph N7.4 kmh N 9.2 mph14.8 kmh 30.23 in1023.7 mb - 0.00 in0.0 mm 0.00 in0.0 mm
02:10 PM 55.8°F13.2°C 31.2°F-0.4°C 39% 10.4 mph E16.7 kmh E 13.8 mph22.2 kmh 30.22 in1023.4 mb - 0.00 in0.0 mm 0.00 in0.0 mm
02:15 PM 56.2°F13.4°C 30.9°F-0.6°C 38% 5.8 mph SE9.3 kmh SE 10.4 mph16.7 kmh 30.22 in1023.4 mb - 0.00 in0.0 mm 0.00 in0.0 mm
02:20 PM 56.1°F13.4°C 30.8°F-0.7°C 38% 5.8 mph ESE9.3 kmh ESE 8.1 mph13.0 kmh 30.23 in1023.7 mb - 0.00 in0.0 mm 0.00 in0.0 mm
02:25 PM 56.5°F13.6°C 31.2°F-0.4°C 38% 3.5 mph E5.6 kmh E 4.6 mph7.4 kmh 30.23 in1023.7 mb - 0.00 in0.0 mm 0.00 in0.0 mm
02:30 PM 56.7°F13.7°C 30.0°F-1.1°C 36% 3.5 mph NNE5.6 kmh NNE 4.6 mph7.4 kmh 30.22 in1023.4 mb - 0.00 in0.0 mm 0.00 in0.0 mm
02:35 PM 56.7°F13.7°C 30.7°F-0.7°C 37% 4.6 mph ENE7.4 kmh ENE 11.5 mph18.5 kmh 30.22 in1023.4 mb - 0.00 in0.0 mm 0.00 in0.0 mm
02:40 PM 56.7°F13.7°C 30.7°F-0.7°C 37% 5.8 mph NE9.3 kmh NE 8.1 mph13.0 kmh 30.22 in1023.4 mb - 0.00 in0.0 mm 0.00 in0.0 mm
02:45 PM 56.4°F13.6°C 31.1°F-0.5°C 38% 4.6 mph SE7.4 kmh SE 9.2 mph14.8 kmh 30.21 in1023.0 mb - 0.00 in0.0 mm 0.00 in0.0 mm
02:50 PM 56.5°F13.6°C 31.8°F-0.1°C 39% 8.1 mph SE13.0 kmh SE 11.5 mph18.5 kmh 30.22 in1023.4 mb - 0.00 in0.0 mm 0.00 in0.0 mm
02:55 PM 56.5°F13.6°C 31.8°F-0.1°C 39% 3.5 mph ENE5.6 kmh ENE 4.6 mph7.4 kmh 30.23 in1023.7 mb - 0.00 in0.0 mm 0.00 in0.0 mm
03:00 PM 56.6°F13.7°C 31.9°F-0.1°C 39% 4.6 mph SE7.4 kmh SE 9.2 mph14.8 kmh 30.22 in1023.4 mb - 0.00 in0.0 mm 0.00 in0.0 mm
03:05 PM 56.9°F13.8°C 30.8°F-0.7°C 37% 5.8 mph S9.3 kmh S 8.1 mph13.0 kmh 30.22 in1023.4 mb - 0.00 in0.0 mm 0.00 in0.0 mm
03:10 PM 56.8°F13.8°C 32.1°F0.1°C 39% 4.6 mph SE7.4 kmh SE 6.9 mph11.1 kmh 30.23 in1023.7 mb - 0.00 in0.0 mm 0.00 in0.0 mm
03:15 PM 56.7°F13.7°C 32.0°F0.0°C 39% 3.5 mph SSE5.6 kmh SSE 10.4 mph16.7 kmh 30.23 in1023.7 mb - 0.00 in0.0 mm 0.00 in0.0 mm
03:20 PM 56.7°F13.7°C 30.7°F-0.7°C 37% 4.6 mph SE7.4 kmh SE 11.5 mph18.5 kmh 30.23 in1023.7 mb - 0.00 in0.0 mm 0.00 in0.0 mm
03:25 PM 56.5°F13.6°C 31.2°F-0.4°C 38% 6.9 mph SE11.1 kmh SE 9.2 mph14.8 kmh 30.22 in1023.4 mb - 0.00 in0.0 mm 0.00 in0.0 mm
03:30 PM 56.3°F13.5°C 31.0°F-0.6°C 38% 8.1 mph ESE13.0 kmh ESE 13.8 mph22.2 kmh 30.22 in1023.4 mb - 0.00 in0.0 mm 0.00 in0.0 mm
03:35 PM 56.3°F13.5°C 31.0°F-0.6°C 38% 5.8 mph ENE9.3 kmh ENE 8.1 mph13.0 kmh 30.22 in1023.4 mb - 0.00 in0.0 mm 0.00 in0.0 mm
03:40 PM 56.5°F13.6°C 31.8°F-0.1°C 39% 2.3 mph N3.7 kmh N 3.5 mph5.6 kmh 30.22 in1023.4 mb - 0.00 in0.0 mm 0.00 in0.0 mm
03:45 PM 56.7°F13.7°C 30.7°F-0.7°C 37% 2.3 mph SE3.7 kmh SE 8.1 mph13.0 kmh 30.22 in1023.4 mb - 0.00 in0.0 mm 0.00 in0.0 mm
03:50 PM 56.2°F13.4°C 30.9°F-0.6°C 38% 8.1 mph ESE13.0 kmh ESE 11.5 mph18.5 kmh 30.22 in1023.4 mb - 0.00 in0.0 mm 0.00 in0.0 mm
03:55 PM 56.3°F13.5°C 31.0°F-0.6°C 38% 3.5 mph NE5.6 kmh NE 5.8 mph9.3 kmh 30.22 in1023.4 mb - 0.00 in0.0 mm 0.00 in0.0 mm
04:00 PM 56.5°F13.6°C 31.2°F-0.4°C 38% 2.3 mph E3.7 kmh E 4.6 mph7.4 kmh 30.21 in1023.0 mb - 0.00 in0.0 mm 0.00 in0.0 mm
04:05 PM 56.6°F13.7°C 30.6°F-0.8°C 37% 2.3 mph SE3.7 kmh SE 3.5 mph5.6 kmh 30.21 in1023.0 mb - 0.00 in0.0 mm 0.00 in0.0 mm
04:10 PM 56.7°F13.7°C 30.7°F-0.7°C 37% 6.9 mph E11.1 kmh E 10.4 mph16.7 kmh 30.22 in1023.4 mb - 0.00 in0.0 mm 0.00 in0.0 mm
04:15 PM 56.6°F13.7°C 31.3°F-0.4°C 38% 3.5 mph NW5.6 kmh NW 3.5 mph5.6 kmh 30.21 in1023.0 mb - 0.00 in0.0 mm 0.00 in0.0 mm
04:20 PM 57.0°F13.9°C 31.6°F-0.2°C 38% 5.8 mph SE9.3 kmh SE 6.9 mph11.1 kmh 30.21 in1023.0 mb - 0.00 in0.0 mm 0.00 in0.0 mm
04:25 PM 57.0°F13.9°C 31.6°F-0.2°C 38% 4.6 mph SSE7.4 kmh SSE 8.1 mph13.0 kmh 30.22 in1023.4 mb - 0.00 in0.0 mm 0.00 in0.0 mm
04:30 PM 56.8°F13.8°C 31.4°F-0.3°C 38% 2.3 mph S3.7 kmh S 3.5 mph5.6 kmh 30.22 in1023.4 mb - 0.00 in0.0 mm 0.00 in0.0 mm
04:35 PM 56.6°F13.7°C 32.5°F0.3°C 40% 5.8 mph SE9.3 kmh SE 6.9 mph11.1 kmh 30.22 in1023.4 mb - 0.00 in0.0 mm 0.00 in0.0 mm
04:40 PM 56.3°F13.5°C 31.6°F-0.2°C 39% 3.5 mph ENE5.6 kmh ENE 4.6 mph7.4 kmh 30.22 in1023.4 mb - 0.00 in0.0 mm 0.00 in0.0 mm
04:45 PM 56.3°F13.5°C 31.6°F-0.2°C 39% 2.3 mph SE3.7 kmh SE 3.5 mph5.6 kmh 30.22 in1023.4 mb - 0.00 in0.0 mm 0.00 in0.0 mm
04:50 PM 56.5°F13.6°C 31.8°F-0.1°C 39% 2.3 mph SE3.7 kmh SE 3.5 mph5.6 kmh 30.22 in1023.4 mb - 0.00 in0.0 mm 0.00 in0.0 mm
04:55 PM 56.6°F13.7°C 31.9°F-0.1°C 39% 1.2 mph SW1.9 kmh SW 2.3 mph3.7 kmh 30.22 in1023.4 mb - 0.00 in0.0 mm 0.00 in0.0 mm
05:00 PM 57.1°F13.9°C 33.0°F0.6°C 40% 3.5 mph SSW5.6 kmh SSW 4.6 mph7.4 kmh 30.22 in1023.4 mb - 0.00 in0.0 mm 0.00 in0.0 mm
05:05 PM 57.2°F14.0°C 32.4°F0.2°C 39% 2.3 mph SW3.7 kmh SW 3.5 mph5.6 kmh 30.22 in1023.4 mb - 0.00 in0.0 mm 0.00 in0.0 mm
05:10 PM 56.8°F13.8°C 32.7°F0.4°C 40% 2.3 mph SSE3.7 kmh SSE 3.5 mph5.6 kmh 30.23 in1023.7 mb - 0.00 in0.0 mm 0.00 in0.0 mm
05:15 PM 56.0°F13.3°C 32.6°F0.3°C 41% 3.5 mph SE5.6 kmh SE 3.5 mph5.6 kmh 30.23 in1023.7 mb - 0.00 in0.0 mm 0.00 in0.0 mm
05:20 PM 55.4°F13.0°C 32.6°F0.3°C 42% 2.3 mph S3.7 kmh S 4.6 mph7.4 kmh 30.23 in1023.7 mb - 0.00 in0.0 mm 0.00 in0.0 mm
05:25 PM 55.0°F12.8°C 32.9°F0.5°C 43% 1.2 mph SSE1.9 kmh SSE 2.3 mph3.7 kmh 30.23 in1023.7 mb - 0.00 in0.0 mm 0.00 in0.0 mm
05:30 PM 54.9°F12.7°C 32.8°F0.4°C 43% 3.5 mph S5.6 kmh S 4.6 mph7.4 kmh 30.23 in1023.7 mb - 0.00 in0.0 mm 0.00 in0.0 mm
05:35 PM 54.5°F12.5°C 32.5°F0.3°C 43% 2.3 mph S3.7 kmh S 3.5 mph5.6 kmh 30.24 in1024.0 mb - 0.00 in0.0 mm 0.00 in0.0 mm
05:40 PM 54.3°F12.4°C 32.8°F0.4°C 44% 2.3 mph SSW3.7 kmh SSW 3.5 mph5.6 kmh 30.24 in1024.0 mb - 0.00 in0.0 mm 0.00 in0.0 mm
05:45 PM 54.1°F12.3°C 32.6°F0.3°C 44% 2.3 mph SSW3.7 kmh SSW 3.5 mph5.6 kmh 30.24 in1024.0 mb - 0.00 in0.0 mm 0.00 in0.0 mm
05:50 PM 53.8°F12.1°C 33.0°F0.6°C 45% 2.3 mph SE3.7 kmh SE 4.6 mph7.4 kmh 30.24 in1024.0 mb - 0.00 in0.0 mm 0.00 in0.0 mm
05:55 PM 53.3°F11.8°C 33.1°F0.6°C 46% 4.6 mph SE7.4 kmh SE 4.6 mph7.4 kmh 30.24 in1024.0 mb - 0.00 in0.0 mm 0.00 in0.0 mm
06:00 PM 53.1°F11.7°C 32.8°F0.4°C 46% 1.2 mph SE1.9 kmh SE 3.5 mph5.6 kmh 30.24 in1024.0 mb - 0.00 in0.0 mm 0.00 in0.0 mm
06:05 PM 53.0°F11.7°C 32.8°F0.4°C 46% 2.3 mph SE3.7 kmh SE 3.5 mph5.6 kmh 30.24 in1024.0 mb - 0.00 in0.0 mm 0.00 in0.0 mm
06:10 PM 52.8°F11.6°C 33.1°F0.6°C 47% 2.3 mph SE3.7 kmh SE 2.3 mph3.7 kmh 30.25 in1024.4 mb - 0.00 in0.0 mm 0.00 in0.0 mm
06:15 PM 52.7°F11.5°C 32.5°F0.3°C 46% 1.2 mph SE1.9 kmh SE 2.3 mph3.7 kmh 30.25 in1024.4 mb - 0.00 in0.0 mm 0.00 in0.0 mm
06:20 PM 52.7°F11.5°C 33.0°F0.6°C 47% 2.3 mph S3.7 kmh S 2.3 mph3.7 kmh 30.25 in1024.4 mb - 0.00 in0.0 mm 0.00 in0.0 mm
06:25 PM 52.5°F11.4°C 32.8°F0.4°C 47% 1.2 mph SW1.9 kmh SW 2.3 mph3.7 kmh 30.25 in1024.4 mb - 0.00 in0.0 mm 0.00 in0.0 mm
06:30 PM 52.2°F11.2°C 32.5°F0.3°C 47% 2.3 mph S3.7 kmh S 2.3 mph3.7 kmh 30.26 in1024.7 mb - 0.00 in0.0 mm 0.00 in0.0 mm
06:35 PM 51.8°F11.0°C 32.7°F0.4°C 48% 1.2 mph S1.9 kmh S 1.2 mph1.9 kmh 30.26 in1024.7 mb - 0.00 in0.0 mm 0.00 in0.0 mm
06:40 PM 51.4°F10.8°C 32.9°F0.5°C 49% 1.2 mph S1.9 kmh S 3.5 mph5.6 kmh 30.26 in1024.7 mb - 0.00 in0.0 mm 0.00 in0.0 mm
06:45 PM 51.2°F10.7°C 32.7°F0.4°C 49% 2.3 mph SW3.7 kmh SW 3.5 mph5.6 kmh 30.26 in1024.7 mb - 0.00 in0.0 mm 0.00 in0.0 mm
06:50 PM 51.1°F10.6°C 33.1°F0.6°C 50% Calm Calm 1.2 mph1.9 kmh 30.26 in1024.7 mb - 0.00 in0.0 mm 0.00 in0.0 mm
06:55 PM 51.2°F10.7°C 33.2°F0.7°C 50% 1.2 mph SW1.9 kmh SW 3.5 mph5.6 kmh 30.26 in1024.7 mb - 0.00 in0.0 mm 0.00 in0.0 mm
07:00 PM 51.1°F10.6°C 32.6°F0.3°C 49% 2.3 mph SSE3.7 kmh SSE 1.2 mph1.9 kmh 30.27 in1025.1 mb - 0.00 in0.0 mm 0.00 in0.0 mm
07:05 PM 51.1°F10.6°C 33.6°F0.9°C 51% 1.2 mph S1.9 kmh S 3.5 mph5.6 kmh 30.27 in1025.1 mb - 0.00 in0.0 mm 0.00 in0.0 mm
07:10 PM 51.0°F10.6°C 33.0°F0.6°C 50% 1.2 mph SSW1.9 kmh SSW 2.3 mph3.7 kmh 30.27 in1025.1 mb - 0.00 in0.0 mm 0.00 in0.0 mm
07:15 PM 50.7°F10.4°C 33.2°F0.7°C 51% 1.2 mph SSW1.9 kmh SSW 2.3 mph3.7 kmh 30.27 in1025.1 mb - 0.00 in0.0 mm 0.00 in0.0 mm
07:20 PM 50.1°F10.1°C 33.6°F0.9°C 53% 3.5 mph NNE5.6 kmh NNE 6.9 mph11.1 kmh 30.27 in1025.1 mb - 0.00 in0.0 mm 0.00 in0.0 mm
07:25 PM 49.7°F9.8°C 32.8°F0.4°C 52% 3.5 mph N5.6 kmh N 4.6 mph7.4 kmh 30.27 in1025.1 mb - 0.00 in0.0 mm 0.00 in0.0 mm
07:30 PM 49.8°F9.9°C 31.9°F-0.1°C 50% 2.3 mph N3.7 kmh N 3.5 mph5.6 kmh 30.27 in1025.1 mb - 0.00 in0.0 mm 0.00 in0.0 mm
07:35 PM 50.0°F10.0°C 32.1°F0.1°C 50% 2.3 mph NNW3.7 kmh NNW 3.5 mph5.6 kmh 30.27 in1025.1 mb - 0.00 in0.0 mm 0.00 in0.0 mm
07:40 PM 50.1°F10.1°C 32.7°F0.4°C 51% 3.5 mph SSW5.6 kmh SSW 3.5 mph5.6 kmh 30.27 in1025.1 mb - 0.00 in0.0 mm 0.00 in0.0 mm
07:45 PM 50.2°F10.1°C 32.3°F0.2°C 50% Calm Calm 2.3 mph3.7 kmh 30.28 in1025.4 mb - 0.00 in0.0 mm 0.00 in0.0 mm
07:50 PM 50.0°F10.0°C 32.1°F0.1°C 50% 5.8 mph SE9.3 kmh SE 8.1 mph13.0 kmh 30.28 in1025.4 mb - 0.00 in0.0 mm 0.00 in0.0 mm
07:55 PM 50.0°F10.0°C 32.1°F0.1°C 50% 3.5 mph SSE5.6 kmh SSE 5.8 mph9.3 kmh 30.27 in1025.1 mb - 0.00 in0.0 mm 0.00 in0.0 mm
08:00 PM 49.9°F9.9°C 32.0°F0.0°C 50% 2.3 mph S3.7 kmh S 3.5 mph5.6 kmh 30.28 in1025.4 mb - 0.00 in0.0 mm 0.00 in0.0 mm
08:05 PM 49.8°F9.9°C 32.4°F0.2°C 51% 2.3 mph S3.7 kmh S 3.5 mph5.6 kmh 30.28 in1025.4 mb - 0.00 in0.0 mm 0.00 in0.0 mm
08:10 PM 49.5°F9.7°C 32.6°F0.3°C 52% Calm Calm -- 30.28 in1025.4 mb - 0.00 in0.0 mm 0.00 in0.0 mm
08:15 PM 49.2°F9.6°C 32.3°F0.2°C 52% Calm Calm -- 30.28 in1025.4 mb - 0.00 in0.0 mm 0.00 in0.0 mm
08:20 PM 49.1°F9.5°C 33.2°F0.7°C 54% Calm Calm -- 30.28 in1025.4 mb - 0.00 in0.0 mm 0.00 in0.0 mm
08:25 PM 48.8°F9.3°C 32.9°F0.5°C 54% Calm Calm -- 30.28 in1025.4 mb - 0.00 in0.0 mm 0.00 in0.0 mm
08:30 PM 48.5°F9.2°C 33.0°F0.6°C 55% Calm Calm -- 30.28 in1025.4 mb - 0.00 in0.0 mm 0.00 in0.0 mm
08:35 PM 48.2°F9.0°C 33.2°F0.7°C 56% Calm Calm -- 30.28 in1025.4 mb - 0.00 in0.0 mm 0.00 in0.0 mm
08:40 PM 47.8°F8.8°C 33.2°F0.7°C 57% 4.6 mph E7.4 kmh E 4.6 mph7.4 kmh 30.28 in1025.4 mb - 0.00 in0.0 mm 0.00 in0.0 mm
08:45 PM 47.3°F8.5°C 33.3°F0.7°C 58% 3.5 mph NNE5.6 kmh NNE 3.5 mph5.6 kmh 30.28 in1025.4 mb - 0.00 in0.0 mm 0.00 in0.0 mm
08:50 PM 47.5°F8.6°C 33.0°F0.6°C 57% 2.3 mph NNE3.7 kmh NNE 3.5 mph5.6 kmh 30.28 in1025.4 mb - 0.00 in0.0 mm 0.00 in0.0 mm
08:55 PM 47.4°F8.6°C 32.9°F0.5°C 57% 1.2 mph NNE1.9 kmh NNE 3.5 mph5.6 kmh 30.28 in1025.4 mb - 0.00 in0.0 mm 0.00 in0.0 mm
09:00 PM 47.3°F8.5°C 32.8°F0.4°C 57% 2.3 mph NNE3.7 kmh NNE 3.5 mph5.6 kmh 30.28 in1025.4 mb - 0.00 in0.0 mm 0.00 in0.0 mm
09:05 PM 47.0°F8.3°C 33.0°F0.6°C 58% 2.3 mph NNE3.7 kmh NNE 3.5 mph5.6 kmh 30.28 in1025.4 mb - 0.00 in0.0 mm 0.00 in0.0 mm
09:10 PM 46.9°F8.3°C 32.9°F0.5°C 58% 2.3 mph NNE3.7 kmh NNE 2.3 mph3.7 kmh 30.28 in1025.4 mb - 0.00 in0.0 mm 0.00 in0.0 mm
09:15 PM 46.9°F8.3°C 33.3°F0.7°C 59% Calm Calm 3.5 mph5.6 kmh 30.28 in1025.4 mb - 0.00 in0.0 mm 0.00 in0.0 mm
09:20 PM 46.8°F8.2°C 33.2°F0.7°C 59% 2.3 mph ENE3.7 kmh ENE 3.5 mph5.6 kmh 30.28 in1025.4 mb - 0.00 in0.0 mm 0.00 in0.0 mm
09:25 PM 46.7°F8.2°C 33.1°F0.6°C 59% 2.3 mph ENE3.7 kmh ENE 3.5 mph5.6 kmh 30.28 in1025.4 mb - 0.00 in0.0 mm 0.00 in0.0 mm
09:30 PM 46.7°F8.2°C 33.1°F0.6°C 59% 2.3 mph ENE3.7 kmh ENE 3.5 mph5.6 kmh 30.28 in1025.4 mb - 0.00 in0.0 mm 0.00 in0.0 mm
09:35 PM 46.7°F8.2°C 33.1°F0.6°C 59% Calm Calm 3.5 mph5.6 kmh 30.28 in1025.4 mb - 0.00 in0.0 mm 0.00 in0.0 mm
09:40 PM 46.7°F8.2°C 33.5°F0.8°C 60% 1.2 mph ENE1.9 kmh ENE 2.3 mph3.7 kmh 30.29 in1025.7 mb - 0.00 in0.0 mm 0.00 in0.0 mm
09:45 PM 46.6°F8.1°C 33.4°F0.8°C 60% 1.2 mph ENE1.9 kmh ENE 2.3 mph3.7 kmh 30.28 in1025.4 mb - 0.00 in0.0 mm 0.00 in0.0 mm
09:50 PM 46.6°F8.1°C 33.4°F0.8°C 60% 2.3 mph ENE3.7 kmh ENE 3.5 mph5.6 kmh 30.28 in1025.4 mb - 0.00 in0.0 mm 0.00 in0.0 mm
09:55 PM 46.6°F8.1°C 33.4°F0.8°C 60% 2.3 mph ENE3.7 kmh ENE 3.5 mph5.6 kmh 30.28 in1025.4 mb - 0.00 in0.0 mm 0.00 in0.0 mm
10:00 PM 46.4°F8.0°C 32.8°F0.4°C 59% 2.3 mph ENE3.7 kmh ENE 3.5 mph5.6 kmh 30.28 in1025.4 mb - 0.00 in0.0 mm 0.00 in0.0 mm
10:10 PM 46.3°F7.9°C 32.7°F0.4°C 59% 1.2 mph ENE1.9 kmh ENE 3.5 mph5.6 kmh 30.29 in1025.7 mb - 0.00 in0.0 mm 0.00 in0.0 mm
10:15 PM 46.0°F7.8°C 32.9°F0.5°C 60% Calm Calm 1.2 mph1.9 kmh 30.28 in1025.4 mb - 0.00 in0.0 mm 0.00 in0.0 mm
10:20 PM 46.1°F7.8°C 33.0°F0.6°C 60% Calm Calm -- 30.29 in1025.7 mb - 0.00 in0.0 mm 0.00 in0.0 mm
10:25 PM 46.0°F7.8°C 32.9°F0.5°C 60% 2.3 mph ENE3.7 kmh ENE 3.5 mph5.6 kmh 30.29 in1025.7 mb - 0.00 in0.0 mm 0.00 in0.0 mm
10:30 PM 45.7°F7.6°C 32.6°F0.3°C 60% 2.3 mph ENE3.7 kmh ENE 2.3 mph3.7 kmh 30.28 in1025.4 mb - 0.00 in0.0 mm 0.00 in0.0 mm
10:35 PM 45.7°F7.6°C 32.6°F0.3°C 60% 3.5 mph ENE5.6 kmh ENE 4.6 mph7.4 kmh 30.29 in1025.7 mb - 0.00 in0.0 mm 0.00 in0.0 mm
10:40 PM 45.7°F7.6°C 32.6°F0.3°C 60% 3.5 mph ENE5.6 kmh ENE 3.5 mph5.6 kmh 30.29 in1025.7 mb - 0.00 in0.0 mm 0.00 in0.0 mm
10:45 PM 46.8°F8.2°C 31.5°F-0.3°C 55% 2.3 mph SE3.7 kmh SE 3.5 mph5.6 kmh 30.28 in1025.4 mb - 0.00 in0.0 mm 0.00 in0.0 mm
10:50 PM 47.4°F8.6°C 32.0°F0.0°C 55% 5.8 mph SE9.3 kmh SE 8.1 mph13.0 kmh 30.28 in1025.4 mb - 0.00 in0.0 mm 0.00 in0.0 mm
10:55 PM 47.1°F8.4°C 32.6°F0.3°C 57% 1.2 mph SSW1.9 kmh SSW 3.5 mph5.6 kmh 30.28 in1025.4 mb - 0.00 in0.0 mm 0.00 in0.0 mm
11:00 PM 46.9°F8.3°C 32.0°F0.0°C 56% Calm Calm -- 30.28 in1025.4 mb - 0.00 in0.0 mm 0.00 in0.0 mm
11:05 PM 47.1°F8.4°C 32.2°F0.1°C 56% Calm Calm -- 30.29 in1025.7 mb - 0.00 in0.0 mm 0.00 in0.0 mm
11:10 PM 47.4°F8.6°C 32.1°F0.1°C 55% 2.3 mph SW3.7 kmh SW 3.5 mph5.6 kmh 30.29 in1025.7 mb - 0.00 in0.0 mm 0.00 in0.0 mm
11:15 PM 47.4°F8.6°C 32.5°F0.3°C 56% 1.2 mph SW1.9 kmh SW 1.2 mph1.9 kmh 30.28 in1025.4 mb - 0.00 in0.0 mm 0.00 in0.0 mm
11:20 PM 47.3°F8.5°C 32.4°F0.2°C 56% 2.3 mph E3.7 kmh E 3.5 mph5.6 kmh 30.28 in1025.4 mb - 0.00 in0.0 mm 0.00 in0.0 mm
11:25 PM 47.2°F8.4°C 32.3°F0.2°C 56% Calm Calm 1.2 mph1.9 kmh 30.28 in1025.4 mb - 0.00 in0.0 mm 0.00 in0.0 mm
11:30 PM 47.2°F8.4°C 32.3°F0.2°C 56% Calm Calm -- 30.28 in1025.4 mb - 0.00 in0.0 mm 0.00 in0.0 mm
11:35 PM 47.1°F8.4°C 32.2°F0.1°C 56% 1.2 mph E1.9 kmh E 2.3 mph3.7 kmh 30.28 in1025.4 mb - 0.00 in0.0 mm 0.00 in0.0 mm
11:40 PM 47.0°F8.3°C 32.5°F0.3°C 57% 2.3 mph E3.7 kmh E 2.3 mph3.7 kmh 30.28 in1025.4 mb - 0.00 in0.0 mm 0.00 in0.0 mm
11:45 PM 46.9°F8.3°C 32.4°F0.2°C 57% 3.5 mph ENE5.6 kmh ENE 3.5 mph5.6 kmh 30.28 in1025.4 mb - 0.00 in0.0 mm 0.00 in0.0 mm
11:50 PM 47.3°F8.5°C 32.4°F0.2°C 56% 1.2 mph ENE1.9 kmh ENE 3.5 mph5.6 kmh 30.28 in1025.4 mb - 0.00 in0.0 mm 0.00 in0.0 mm
11:55 PM 47.4°F8.6°C 32.0°F0.0°C 55% 3.5 mph W5.6 kmh W 8.1 mph13.0 kmh 30.28 in1025.4 mb - 0.00 in0.0 mm 0.00 in0.0 mm